createdAt,value
2019-06-27T00:01:30.959Z,19.40
2019-06-27T00:03:59.340Z,19.40
2019-06-27T00:06:27.585Z,19.30
2019-06-27T00:08:55.808Z,19.30
2019-06-27T00:11:24.055Z,19.30
2019-06-27T00:13:52.300Z,19.40
2019-06-27T00:16:20.586Z,19.30
2019-06-27T00:18:48.844Z,19.00
2019-06-27T00:21:17.084Z,19.00
2019-06-27T00:23:45.318Z,19.00
2019-06-27T00:26:13.587Z,19.10
2019-06-27T00:28:41.813Z,19.00
2019-06-27T00:31:10.076Z,19.00
2019-06-27T00:33:38.347Z,18.90
2019-06-27T00:36:06.627Z,18.90
2019-06-27T00:38:34.859Z,18.80
2019-06-27T00:41:03.100Z,18.70
2019-06-27T00:43:31.330Z,18.70
2019-06-27T00:45:59.584Z,18.60
2019-06-27T00:48:27.839Z,18.70
2019-06-27T00:50:56.125Z,18.60
2019-06-27T00:53:24.376Z,18.50
2019-06-27T00:55:52.605Z,18.50
2019-06-27T00:58:20.896Z,18.40
2019-06-27T01:00:49.131Z,18.30
2019-06-27T01:03:18.733Z,18.30
2019-06-27T01:05:46.984Z,18.30
2019-06-27T01:08:15.219Z,18.30
2019-06-27T01:10:43.557Z,18.20
2019-06-27T01:13:11.816Z,18.20
2019-06-27T01:15:40.159Z,18.10
2019-06-27T01:18:08.572Z,18.00
2019-06-27T01:20:36.807Z,18.10
2019-06-27T01:23:05.060Z,18.10
2019-06-27T01:25:33.384Z,18.20
2019-06-27T01:28:01.689Z,18.20
2019-06-27T01:30:30.049Z,18.10
2019-06-27T01:32:58.359Z,18.10
2019-06-27T01:35:26.609Z,18.00
2019-06-27T01:37:54.863Z,18.10
2019-06-27T01:40:23.211Z,18.10
2019-06-27T01:42:51.434Z,18.20
2019-06-27T01:45:25.156Z,18.10
2019-06-27T01:47:53.420Z,18.00
2019-06-27T01:50:21.681Z,17.90
2019-06-27T01:52:49.904Z,18.00
2019-06-27T01:55:18.166Z,17.90
2019-06-27T01:57:47.374Z,17.90
2019-06-27T02:00:16.329Z,17.90
2019-06-27T02:02:44.550Z,18.00
2019-06-27T02:05:13.530Z,18.20
2019-06-27T02:07:41.801Z,18.20
2019-06-27T02:10:10.375Z,18.20
2019-06-27T02:12:38.591Z,18.20
2019-06-27T02:15:07.212Z,18.20
2019-06-27T02:17:35.437Z,18.20
2019-06-27T02:20:04.127Z,18.20
2019-06-27T02:22:32.352Z,18.00
2019-06-27T02:25:00.652Z,18.10
2019-06-27T02:27:29.022Z,17.90
2019-06-27T02:29:57.276Z,17.90
2019-06-27T02:32:25.615Z,17.80
2019-06-27T02:34:53.830Z,17.80
2019-06-27T02:37:22.100Z,17.80
2019-06-27T02:39:50.304Z,18.00
2019-06-27T02:42:18.601Z,17.80
2019-06-27T02:44:46.989Z,17.80
2019-06-27T02:49:54.975Z,17.70
2019-06-27T02:52:23.366Z,17.60
2019-06-27T02:54:51.578Z,17.70
2019-06-27T02:57:20.166Z,17.70
2019-06-27T02:59:48.402Z,17.50
2019-06-27T03:02:16.668Z,17.40
2019-06-27T03:04:44.888Z,17.40
2019-06-27T03:07:13.561Z,17.40
2019-06-27T03:09:41.778Z,17.40
2019-06-27T03:12:10.057Z,17.30
2019-06-27T03:14:38.384Z,17.40
2019-06-27T03:17:06.713Z,17.40
2019-06-27T03:19:34.929Z,17.50
2019-06-27T03:22:05.797Z,17.40
2019-06-27T03:24:33.174Z,17.50
2019-06-27T03:27:01.384Z,17.40
2019-06-27T03:29:29.661Z,17.40
2019-06-27T03:31:57.899Z,17.20
2019-06-27T03:34:26.241Z,17.20
2019-06-27T03:36:54.561Z,17.20
2019-06-27T03:39:22.841Z,17.10
2019-06-27T03:41:51.067Z,17.10
2019-06-27T03:44:19.397Z,16.90
2019-06-27T03:46:47.677Z,17.00
2019-06-27T03:49:15.956Z,17.10
2019-06-27T03:51:44.157Z,16.90
2019-06-27T03:54:12.505Z,16.90
2019-06-27T03:56:40.762Z,17.00
2019-06-27T03:59:12.751Z,17.00
2019-06-27T04:01:39.035Z,17.00
2019-06-27T04:04:07.286Z,17.00
2019-06-27T04:06:35.536Z,16.90
2019-06-27T04:09:05.178Z,17.00
2019-06-27T04:11:33.615Z,16.90
2019-06-27T04:14:01.920Z,16.90
2019-06-27T04:16:30.159Z,16.80
2019-06-27T04:18:58.413Z,16.80
2019-06-27T04:21:26.656Z,16.70
2019-06-27T04:23:54.932Z,16.60
2019-06-27T04:26:23.164Z,16.50
2019-06-27T04:28:51.504Z,16.60
2019-06-27T04:31:19.785Z,16.80
2019-06-27T04:33:48.043Z,16.80
2019-06-27T04:36:16.274Z,16.90
2019-06-27T04:38:44.487Z,16.70
2019-06-27T04:41:12.727Z,16.60
2019-06-27T04:43:40.977Z,16.60
2019-06-27T04:46:09.221Z,16.60
2019-06-27T04:48:37.516Z,16.60
2019-06-27T04:51:05.834Z,16.60
2019-06-27T04:53:34.191Z,16.60
2019-06-27T04:56:02.382Z,16.60
2019-06-27T04:58:30.657Z,16.50
2019-06-27T05:00:58.957Z,16.60
2019-06-27T05:03:27.188Z,16.60
2019-06-27T05:05:55.539Z,16.70
2019-06-27T05:08:23.757Z,16.80
2019-06-27T05:10:52.071Z,16.90
2019-06-27T05:13:20.441Z,16.90
2019-06-27T05:15:48.671Z,16.90
2019-06-27T05:18:16.925Z,17.00
2019-06-27T05:20:45.158Z,17.00
2019-06-27T05:23:13.469Z,17.00
2019-06-27T05:25:41.845Z,17.00
2019-06-27T05:28:10.074Z,17.00
2019-06-27T05:30:38.347Z,17.10
2019-06-27T05:33:06.711Z,17.20
2019-06-27T05:35:35.129Z,17.40
2019-06-27T05:38:03.432Z,17.50
2019-06-27T05:40:31.698Z,17.70
2019-06-27T05:42:59.941Z,17.90
2019-06-27T05:45:28.201Z,17.90
2019-06-27T05:47:56.440Z,17.80
2019-06-27T05:50:24.712Z,18.00
2019-06-27T05:52:53.003Z,18.30
2019-06-27T05:55:21.685Z,18.20
2019-06-27T05:57:49.901Z,18.30
2019-06-27T06:00:28.211Z,18.00
2019-06-27T06:02:48.409Z,18.10
2019-06-27T06:05:16.678Z,18.10
2019-06-27T06:07:44.941Z,18.00
2019-06-27T06:10:13.645Z,17.90
2019-06-27T06:12:41.927Z,18.00
2019-06-27T06:15:10.149Z,17.90
2019-06-27T06:17:38.434Z,17.80
2019-06-27T06:20:07.743Z,17.70
2019-06-27T06:22:36.039Z,17.80
2019-06-27T06:25:04.816Z,17.90
2019-06-27T06:27:33.094Z,18.00
2019-06-27T06:30:01.352Z,18.00
2019-06-27T06:32:29.672Z,17.80
2019-06-27T06:34:57.900Z,17.80
2019-06-27T06:37:26.129Z,18.00
2019-06-27T06:39:54.364Z,18.10
2019-06-27T06:42:23.220Z,18.50
2019-06-27T06:44:51.449Z,18.70
2019-06-27T06:47:19.715Z,18.90
2019-06-27T06:49:48.007Z,19.00
2019-06-27T06:52:16.346Z,19.10
2019-06-27T06:54:44.737Z,19.00
2019-06-27T06:57:12.929Z,18.60
2019-06-27T06:59:41.262Z,18.40
2019-06-27T07:02:09.608Z,18.70
2019-06-27T07:04:37.971Z,19.10
2019-06-27T07:07:06.256Z,19.10
2019-06-27T07:09:34.547Z,18.80
2019-06-27T07:12:02.866Z,18.60
2019-06-27T07:14:31.316Z,18.30
2019-06-27T07:16:59.690Z,18.50
2019-06-27T07:19:27.928Z,18.60
2019-06-27T07:21:56.210Z,18.70
2019-06-27T07:24:24.452Z,18.80
2019-06-27T07:26:52.718Z,18.80
2019-06-27T07:29:20.929Z,18.50
2019-06-27T07:31:49.234Z,18.10
2019-06-27T07:34:17.545Z,18.20
2019-06-27T07:36:45.804Z,18.40
2019-06-27T07:39:14.035Z,18.60
2019-06-27T07:41:42.348Z,18.60
2019-06-27T07:44:10.564Z,18.60
2019-06-27T07:46:39.059Z,18.60
2019-06-27T07:49:07.317Z,18.50
2019-06-27T07:51:35.582Z,18.50
2019-06-27T07:54:03.799Z,18.40
2019-06-27T07:56:32.041Z,18.60
2019-06-27T07:59:00.367Z,18.50
2019-06-27T08:01:34.996Z,18.30
2019-06-27T08:03:58.558Z,18.40
2019-06-27T08:06:26.871Z,18.40
2019-06-27T08:08:55.162Z,18.60
2019-06-27T08:11:23.516Z,18.70
2019-06-27T08:13:51.799Z,18.80
2019-06-27T08:16:20.135Z,18.90
2019-06-27T08:18:48.427Z,18.90
2019-06-27T08:21:16.757Z,19.10
2019-06-27T08:23:45.051Z,19.30
2019-06-27T08:26:13.407Z,19.50
2019-06-27T08:28:41.729Z,19.50
2019-06-27T08:31:10.127Z,19.20
2019-06-27T08:33:38.442Z,19.20
2019-06-27T08:36:06.723Z,19.40
2019-06-27T08:38:35.002Z,19.50
2019-06-27T08:41:03.296Z,19.60
2019-06-27T08:43:31.632Z,19.70
2019-06-27T08:45:59.840Z,19.60
2019-06-27T08:48:28.190Z,19.70
2019-06-27T08:50:56.443Z,19.90
2019-06-27T08:53:24.774Z,20.10
2019-06-27T08:55:53.097Z,19.80
2019-06-27T08:58:21.350Z,19.90
2019-06-27T09:00:49.853Z,19.60
2019-06-27T09:03:18.128Z,19.80
2019-06-27T09:05:46.375Z,19.90
2019-06-27T09:08:14.664Z,20.00
2019-06-27T09:10:43.040Z,20.20
2019-06-27T09:13:11.339Z,20.20
2019-06-27T09:15:39.658Z,20.40
2019-06-27T09:18:08.058Z,20.30
2019-06-27T09:20:36.435Z,20.40
2019-06-27T09:23:04.711Z,20.40
2019-06-27T09:25:33.024Z,20.50
2019-06-27T09:28:01.309Z,20.70
2019-06-27T09:30:29.538Z,20.80
2019-06-27T09:32:57.813Z,20.70
2019-06-27T09:35:26.044Z,20.80
2019-06-27T09:37:54.301Z,20.90
2019-06-27T09:40:22.647Z,20.90
2019-06-27T09:42:51.011Z,21.00
2019-06-27T09:45:19.446Z,21.10
2019-06-27T09:47:47.771Z,21.10
2019-06-27T09:50:16.033Z,21.20
2019-06-27T09:52:44.438Z,21.20
2019-06-27T09:55:14.151Z,21.00
2019-06-27T09:57:42.547Z,21.00
2019-06-27T10:00:11.427Z,20.90
2019-06-27T10:02:42.005Z,21.10
2019-06-27T10:05:09.837Z,21.10
2019-06-27T10:07:38.162Z,21.20
2019-06-27T10:10:06.530Z,21.20
2019-06-27T10:12:42.376Z,21.00
2019-06-27T10:15:05.128Z,21.10
2019-06-27T10:17:33.402Z,21.30
2019-06-27T10:20:01.665Z,21.40
2019-06-27T10:22:30.005Z,21.20
2019-06-27T10:24:58.277Z,21.40
2019-06-27T10:27:26.584Z,21.50
2019-06-27T10:29:54.778Z,21.60
2019-06-27T10:32:23.058Z,21.70
2019-06-27T10:34:51.345Z,22.00
2019-06-27T10:37:19.657Z,21.90
2019-06-27T10:39:47.944Z,22.00
2019-06-27T10:42:16.192Z,21.90
2019-06-27T10:44:44.437Z,21.90
2019-06-27T10:47:13.080Z,22.00
2019-06-27T10:49:41.337Z,22.10
2019-06-27T10:52:10.130Z,22.40
2019-06-27T10:54:38.375Z,22.50
2019-06-27T10:57:06.685Z,22.50
2019-06-27T10:59:34.955Z,22.50
2019-06-27T11:02:06.829Z,22.50
2019-06-27T11:04:35.183Z,22.50
2019-06-27T11:07:03.480Z,22.60
2019-06-27T11:09:31.743Z,22.60
2019-06-27T11:12:00.054Z,22.30
2019-06-27T11:14:28.275Z,22.40
2019-06-27T11:16:56.610Z,22.40
2019-06-27T11:19:25.003Z,22.60
2019-06-27T11:21:53.273Z,22.60
2019-06-27T11:24:21.588Z,22.70
2019-06-27T11:26:49.941Z,22.70
2019-06-27T11:29:18.272Z,22.80
2019-06-27T11:31:46.543Z,22.80
2019-06-27T11:34:14.814Z,23.00
2019-06-27T11:36:46.461Z,23.10
2019-06-27T11:39:13.084Z,23.10
2019-06-27T11:41:41.446Z,23.20
2019-06-27T11:44:09.691Z,23.10
2019-06-27T11:46:37.995Z,23.20
2019-06-27T11:49:06.275Z,23.00
2019-06-27T11:51:34.539Z,23.10
2019-06-27T11:54:02.972Z,22.90
2019-06-27T11:56:31.579Z,23.00
2019-06-27T11:58:59.858Z,22.80
2019-06-27T12:01:28.287Z,22.70
2019-06-27T12:03:56.555Z,22.60
2019-06-27T12:06:24.874Z,22.70
2019-06-27T12:08:53.137Z,22.80
2019-06-27T12:11:21.800Z,22.90
2019-06-27T12:13:50.052Z,23.00
2019-06-27T12:16:18.388Z,23.20
2019-06-27T12:18:46.622Z,23.30
2019-06-27T12:21:14.904Z,23.30
2019-06-27T12:23:43.134Z,23.20
2019-06-27T12:26:11.455Z,23.40
2019-06-27T12:28:39.840Z,23.50
2019-06-27T12:31:19.982Z,23.60
2019-06-27T12:33:38.122Z,23.50
2019-06-27T12:36:06.933Z,23.50
2019-06-27T12:38:35.177Z,23.50
2019-06-27T12:41:03.487Z,23.10
2019-06-27T12:43:31.737Z,23.20
2019-06-27T12:46:00.064Z,23.40
2019-06-27T12:48:28.336Z,23.60
2019-06-27T12:50:56.675Z,23.60
2019-06-27T12:53:24.972Z,23.60
2019-06-27T12:55:53.559Z,23.70
2019-06-27T12:58:21.867Z,23.70
2019-06-27T13:00:50.211Z,23.70
2019-06-27T13:03:18.456Z,23.70
2019-06-27T13:05:46.745Z,23.70
2019-06-27T13:08:15.027Z,23.70
2019-06-27T13:10:43.297Z,23.70
2019-06-27T13:13:11.608Z,23.70
2019-06-27T13:15:39.904Z,23.70
2019-06-27T13:18:08.132Z,23.70
2019-06-27T13:20:36.401Z,23.80
2019-06-27T13:23:04.653Z,23.70
2019-06-27T13:25:34.369Z,23.60
2019-06-27T13:28:02.883Z,23.70
2019-06-27T13:30:31.195Z,23.90
2019-06-27T13:32:59.538Z,24.00
2019-06-27T13:35:27.927Z,23.80
2019-06-27T13:37:56.173Z,23.60
2019-06-27T13:40:24.832Z,23.60
2019-06-27T13:42:55.518Z,23.60
2019-06-27T13:45:26.492Z,23.70
2019-06-27T13:47:53.479Z,23.70
2019-06-27T13:50:21.848Z,23.90
2019-06-27T13:52:50.177Z,24.10
2019-06-27T13:55:18.546Z,24.30
2019-06-27T13:57:46.776Z,24.20
2019-06-27T14:00:15.158Z,24.20
2019-06-27T14:02:43.488Z,24.20
2019-06-27T14:05:11.962Z,24.10
2019-06-27T14:07:40.316Z,24.10
2019-06-27T14:10:09.220Z,24.00
2019-06-27T14:12:37.593Z,24.00
2019-06-27T14:15:05.859Z,24.10
2019-06-27T14:17:34.208Z,24.20
2019-06-27T14:20:02.524Z,24.30
2019-06-27T14:22:34.064Z,24.30
2019-06-27T14:25:00.803Z,24.30
2019-06-27T14:27:29.121Z,24.40
2019-06-27T14:29:57.401Z,24.30
2019-06-27T14:32:25.736Z,24.30
2019-06-27T14:34:54.083Z,24.30
2019-06-27T14:37:22.743Z,24.20
2019-06-27T14:39:51.106Z,24.30
2019-06-27T14:42:19.384Z,24.30
2019-06-27T14:44:47.668Z,24.50
2019-06-27T14:47:18.299Z,24.50
2019-06-27T14:49:46.604Z,24.40
2019-06-27T14:52:14.870Z,24.40
2019-06-27T14:54:43.110Z,24.60
2019-06-27T14:57:13.295Z,24.60
2019-06-27T14:59:41.703Z,24.80
2019-06-27T15:02:10.006Z,24.70
2019-06-27T15:04:38.352Z,24.80
2019-06-27T15:07:06.683Z,24.70
2019-06-27T15:09:35.039Z,24.70
2019-06-27T15:12:03.342Z,24.60
2019-06-27T15:14:31.707Z,24.60
2019-06-27T15:17:00.112Z,24.50
2019-06-27T15:19:28.449Z,24.60
2019-06-27T15:21:56.761Z,24.70
2019-06-27T15:24:25.021Z,24.70
2019-06-27T15:26:53.404Z,24.70
2019-06-27T15:29:21.776Z,24.80
2019-06-27T15:31:50.202Z,24.80
2019-06-27T15:34:18.475Z,24.80
2019-06-27T15:36:46.865Z,24.70
2019-06-27T15:39:15.262Z,24.70
2019-06-27T15:41:43.581Z,24.60
2019-06-27T15:44:11.918Z,24.60
2019-06-27T15:46:40.199Z,24.70
2019-06-27T15:49:08.497Z,24.90
2019-06-27T15:51:36.840Z,24.90
2019-06-27T15:54:05.199Z,25.00
2019-06-27T15:56:33.464Z,25.10
2019-06-27T15:59:03.768Z,25.10
2019-06-27T16:01:31.718Z,25.20
2019-06-27T16:04:00.083Z,25.20
2019-06-27T16:06:28.420Z,25.20
2019-06-27T16:08:56.723Z,25.20
2019-06-27T16:11:25.013Z,25.10
2019-06-27T16:13:53.371Z,25.20
2019-06-27T16:16:21.619Z,25.00
2019-06-27T16:18:49.931Z,25.00
2019-06-27T16:21:18.337Z,25.00
2019-06-27T16:23:46.648Z,25.00
2019-06-27T16:26:14.946Z,25.00
2019-06-27T16:28:43.229Z,24.90
2019-06-27T16:31:11.559Z,25.00
2019-06-27T16:33:40.200Z,25.10
2019-06-27T16:36:24.189Z,25.10
2019-06-27T16:38:39.067Z,25.20
2019-06-27T16:41:11.633Z,25.00
2019-06-27T16:43:40.212Z,25.10
2019-06-27T16:46:08.633Z,24.90
2019-06-27T16:48:36.948Z,25.00
2019-06-27T16:51:05.256Z,24.70
2019-06-27T16:53:33.670Z,24.80
2019-06-27T16:56:01.965Z,24.70
2019-06-27T16:58:30.327Z,24.70
2019-06-27T17:00:58.626Z,24.80
2019-06-27T17:03:28.770Z,24.90
2019-06-27T17:05:58.450Z,24.80
2019-06-27T17:08:26.741Z,24.90
2019-06-27T17:10:58.459Z,24.80
2019-06-27T17:13:25.107Z,24.90
2019-06-27T17:15:57.568Z,24.90
2019-06-27T17:18:25.866Z,24.90
2019-06-27T17:20:54.197Z,24.80
2019-06-27T17:23:22.611Z,24.80
2019-06-27T17:25:51.132Z,24.60
2019-06-27T17:28:19.513Z,24.70
2019-06-27T17:30:47.955Z,24.60
2019-06-27T17:33:16.516Z,24.60
2019-06-27T17:35:53.757Z,24.50
2019-06-27T17:38:22.070Z,24.50
2019-06-27T17:40:50.480Z,24.40
2019-06-27T17:43:20.500Z,24.50
2019-06-27T17:45:49.699Z,24.40
2019-06-27T17:48:18.081Z,24.40
2019-06-27T17:50:46.420Z,24.50
2019-06-27T17:53:15.149Z,24.60
2019-06-27T17:55:43.657Z,24.50
2019-06-27T17:58:12.024Z,24.50
2019-06-27T18:00:40.453Z,24.50
2019-06-27T18:03:08.889Z,24.50
2019-06-27T18:05:37.149Z,24.40
2019-06-27T18:08:05.471Z,24.40
2019-06-27T18:10:38.970Z,24.30
2019-06-27T18:13:07.334Z,24.30
2019-06-27T18:15:35.669Z,24.40
2019-06-27T18:18:04.412Z,24.30
2019-06-27T18:20:32.730Z,24.20
2019-06-27T18:23:01.166Z,24.20
2019-06-27T18:25:29.616Z,24.20
2019-06-27T18:27:58.157Z,24.30
2019-06-27T18:30:26.443Z,24.10
2019-06-27T18:32:54.951Z,24.00
2019-06-27T18:35:24.872Z,23.70
2019-06-27T18:37:53.339Z,23.60
2019-06-27T18:40:21.670Z,23.50
2019-06-27T18:42:50.181Z,23.40
2019-06-27T18:45:18.602Z,23.20
2019-06-27T18:47:46.976Z,23.00
2019-06-27T18:50:16.836Z,22.90
2019-06-27T18:52:45.271Z,22.90
2019-06-27T18:55:13.603Z,22.70
2019-06-27T18:57:41.888Z,22.60
2019-06-27T19:00:10.269Z,22.60
2019-06-27T19:02:40.612Z,22.50
2019-06-27T19:05:08.938Z,22.40
2019-06-27T19:07:45.398Z,22.20
2019-06-27T19:10:07.791Z,22.10
2019-06-27T19:12:36.287Z,21.90
2019-06-27T19:15:04.690Z,21.80
2019-06-27T19:17:33.055Z,21.70
2019-06-27T19:20:05.511Z,21.60
2019-06-27T19:22:51.569Z,21.50
2019-06-27T19:25:29.677Z,21.40
2019-06-27T19:27:58.183Z,21.30
2019-06-27T19:30:27.476Z,21.30
2019-06-27T19:32:55.843Z,21.40
2019-06-27T19:35:24.153Z,21.30
2019-06-27T19:38:02.246Z,21.20
2019-06-27T19:40:22.604Z,21.20
2019-06-27T19:42:53.890Z,21.00
2019-06-27T19:45:23.486Z,20.80
2019-06-27T19:47:51.998Z,20.80
2019-06-27T19:50:20.571Z,20.70
2019-06-27T19:52:49.038Z,20.70
2019-06-27T19:55:17.837Z,20.60
2019-06-27T19:57:46.411Z,20.60
2019-06-27T20:00:15.633Z,20.50
2019-06-27T20:02:44.042Z,20.50
2019-06-27T20:05:13.285Z,20.40
2019-06-27T20:07:41.993Z,20.30
2019-06-27T20:10:11.816Z,20.30
2019-06-27T20:12:40.591Z,20.30
2019-06-27T20:15:09.110Z,20.20
2019-06-27T20:17:37.549Z,20.10
2019-06-27T20:20:06.824Z,20.10
2019-06-27T20:22:35.163Z,19.90
2019-06-27T20:25:03.800Z,19.80
2019-06-27T20:27:32.224Z,19.80
2019-06-27T20:30:00.509Z,19.70
2019-06-27T20:32:28.901Z,19.60
2019-06-27T20:34:57.234Z,19.50
2019-06-27T20:37:27.049Z,19.40
2019-06-27T20:39:55.995Z,19.30
2019-06-27T20:42:24.464Z,19.30
2019-06-27T20:44:53.032Z,19.20
2019-06-27T20:47:21.502Z,19.10
2019-06-27T20:49:50.277Z,19.10
2019-06-27T20:52:18.627Z,19.00
2019-06-27T20:54:46.986Z,19.00
2019-06-27T20:57:15.327Z,18.90
2019-06-27T20:59:43.731Z,18.90
2019-06-27T21:02:11.965Z,18.90
2019-06-27T21:04:40.251Z,18.80
2019-06-27T21:07:09.957Z,18.80
2019-06-27T21:09:38.562Z,18.90
2019-06-27T21:12:06.833Z,18.90
2019-06-27T21:14:35.235Z,18.90
2019-06-27T21:17:03.510Z,18.90
2019-06-27T21:19:31.804Z,18.80
2019-06-27T21:22:00.158Z,18.80
2019-06-27T21:24:28.496Z,18.80
2019-06-27T21:26:56.791Z,18.80
2019-06-27T21:29:25.130Z,18.80
2019-06-27T21:31:53.645Z,18.80
2019-06-27T21:34:25.313Z,18.70
2019-06-27T21:36:53.648Z,18.70
2019-06-27T21:39:22.192Z,18.50
2019-06-27T21:41:50.603Z,18.50
2019-06-27T21:44:18.967Z,18.50
2019-06-27T21:46:47.238Z,18.40
2019-06-27T21:49:15.513Z,18.40
2019-06-27T21:51:43.891Z,18.40
2019-06-27T21:54:12.187Z,18.30
2019-06-27T21:56:40.459Z,18.30
2019-06-27T21:59:08.751Z,18.20
2019-06-27T22:01:36.987Z,18.20
2019-06-27T22:04:05.262Z,18.20
2019-06-27T22:06:33.509Z,18.10
2019-06-27T22:09:01.818Z,18.00
2019-06-27T22:11:30.104Z,18.00
2019-06-27T22:13:58.430Z,18.00
2019-06-27T22:16:26.679Z,18.00
2019-06-27T22:18:54.977Z,18.00
2019-06-27T22:21:23.220Z,17.90
2019-06-27T22:23:51.612Z,17.70
2019-06-27T22:26:19.973Z,17.70
2019-06-27T22:28:48.280Z,17.50
2019-06-27T22:31:16.524Z,17.50
2019-06-27T22:33:44.763Z,17.50
2019-06-27T22:36:13.064Z,17.50
2019-06-27T22:38:58.957Z,17.40
2019-06-27T22:41:44.789Z,17.40
2019-06-27T22:44:30.562Z,17.40
2019-06-27T22:47:16.851Z,17.40
2019-06-27T22:49:44.391Z,17.40
2019-06-27T22:52:30.341Z,17.30
2019-06-27T22:54:59.709Z,17.30
2019-06-27T22:57:28.136Z,17.20
2019-06-27T22:59:56.370Z,17.20
2019-06-27T23:02:24.599Z,17.10
2019-06-27T23:04:53.063Z,17.00
2019-06-27T23:07:21.329Z,16.90
2019-06-27T23:09:56.797Z,16.80
2019-06-27T23:12:19.785Z,16.70
2019-06-27T23:14:48.010Z,16.70
2019-06-27T23:17:16.277Z,16.60
2019-06-27T23:19:44.495Z,16.40
2019-06-27T23:22:12.794Z,16.40
2019-06-27T23:24:41.134Z,16.30
2019-06-27T23:27:09.410Z,16.20
2019-06-27T23:29:39.119Z,16.10
2019-06-27T23:32:07.392Z,16.10
2019-06-27T23:34:35.640Z,16.10
2019-06-27T23:37:03.907Z,16.00
2019-06-27T23:39:32.152Z,16.10
2019-06-27T23:42:00.754Z,16.10
2019-06-27T23:44:29.000Z,16.00
2019-06-27T23:46:57.316Z,16.00
2019-06-27T23:49:25.559Z,16.00
2019-06-27T23:51:53.824Z,15.90
2019-06-27T23:54:22.059Z,15.80
2019-06-27T23:56:50.395Z,15.80
2019-06-27T23:59:18.792Z,15.90
